sensor_id;sensor_type;location;lat;lon;timestamp;P1;durP1;ratioP1;P2;durP2;ratioP2
71572;SDS011;59408;51.032;9.410;2022-07-18T00:01:54;6.82;;;1.75;;
71572;SDS011;59408;51.032;9.410;2022-07-18T00:04:23;6.10;;;2.00;;
71572;SDS011;59408;51.032;9.410;2022-07-18T00:06:49;6.20;;;1.60;;
71572;SDS011;59408;51.032;9.410;2022-07-18T00:09:16;5.90;;;1.57;;
71572;SDS011;59408;51.032;9.410;2022-07-18T00:11:42;5.78;;;1.70;;
71572;SDS011;59408;51.032;9.410;2022-07-18T00:14:10;5.72;;;1.90;;
71572;SDS011;59408;51.032;9.410;2022-07-18T00:16:37;6.00;;;1.70;;
71572;SDS011;59408;51.032;9.410;2022-07-18T00:19:03;4.97;;;1.77;;
71572;SDS011;59408;51.032;9.410;2022-07-18T00:21:32;7.65;;;1.73;;
71572;SDS011;59408;51.032;9.410;2022-07-18T00:23:59;4.57;;;1.30;;
71572;SDS011;59408;51.032;9.410;2022-07-18T00:26:26;5.57;;;1.58;;
71572;SDS011;59408;51.032;9.410;2022-07-18T00:28:53;5.07;;;1.58;;
71572;SDS011;59408;51.032;9.410;2022-07-18T00:31:20;4.50;;;1.40;;
71572;SDS011;59408;51.032;9.410;2022-07-18T00:33:46;5.13;;;1.50;;
71572;SDS011;59408;51.032;9.410;2022-07-18T00:36:13;5.63;;;1.98;;
71572;SDS011;59408;51.032;9.410;2022-07-18T00:38:41;4.38;;;1.50;;
71572;SDS011;59408;51.032;9.410;2022-07-18T00:41:08;6.68;;;2.00;;
71572;SDS011;59408;51.032;9.410;2022-07-18T00:43:34;5.53;;;1.80;;
71572;SDS011;59408;51.032;9.410;2022-07-18T00:46:01;5.40;;;1.77;;
71572;SDS011;59408;51.032;9.410;2022-07-18T00:48:28;5.75;;;1.85;;
71572;SDS011;59408;51.032;9.410;2022-07-18T00:50:54;5.15;;;1.80;;
71572;SDS011;59408;51.032;9.410;2022-07-18T00:53:21;5.68;;;1.60;;
71572;SDS011;59408;51.032;9.410;2022-07-18T00:55:49;4.67;;;1.27;;
71572;SDS011;59408;51.032;9.410;2022-07-18T00:58:15;5.00;;;1.80;;
71572;SDS011;59408;51.032;9.410;2022-07-18T01:00:42;5.65;;;1.85;;
71572;SDS011;59408;51.032;9.410;2022-07-18T01:03:09;5.15;;;1.65;;
71572;SDS011;59408;51.032;9.410;2022-07-18T01:05:36;6.25;;;1.80;;
71572;SDS011;59408;51.032;9.410;2022-07-18T01:08:03;4.65;;;1.38;;
71572;SDS011;59408;51.032;9.410;2022-07-18T01:10:29;6.50;;;1.70;;
71572;SDS011;59408;51.032;9.410;2022-07-18T01:12:57;5.30;;;1.65;;
71572;SDS011;59408;51.032;9.410;2022-07-18T01:15:24;5.97;;;1.67;;
71572;SDS011;59408;51.032;9.410;2022-07-18T01:17:51;5.32;;;1.77;;
71572;SDS011;59408;51.032;9.410;2022-07-18T01:20:17;4.27;;;1.30;;
71572;SDS011;59408;51.032;9.410;2022-07-18T01:22:46;4.50;;;1.30;;
71572;SDS011;59408;51.032;9.410;2022-07-18T01:25:13;4.10;;;1.20;;
71572;SDS011;59408;51.032;9.410;2022-07-18T01:27:39;6.28;;;1.70;;
71572;SDS011;59408;51.032;9.410;2022-07-18T01:30:07;4.95;;;1.65;;
71572;SDS011;59408;51.032;9.410;2022-07-18T01:32:34;5.55;;;1.42;;
71572;SDS011;59408;51.032;9.410;2022-07-18T01:35:01;4.57;;;1.45;;
71572;SDS011;59408;51.032;9.410;2022-07-18T01:37:28;5.53;;;1.42;;
71572;SDS011;59408;51.032;9.410;2022-07-18T01:39:56;4.38;;;1.40;;
71572;SDS011;59408;51.032;9.410;2022-07-18T01:42:23;5.05;;;1.48;;
71572;SDS011;59408;51.032;9.410;2022-07-18T01:44:49;5.57;;;1.40;;
71572;SDS011;59408;51.032;9.410;2022-07-18T01:47:16;4.63;;;1.30;;
71572;SDS011;59408;51.032;9.410;2022-07-18T01:49:43;4.97;;;1.48;;
71572;SDS011;59408;51.032;9.410;2022-07-18T01:52:09;3.95;;;1.33;;
71572;SDS011;59408;51.032;9.410;2022-07-18T01:54:36;3.92;;;1.25;;
71572;SDS011;59408;51.032;9.410;2022-07-18T01:57:05;3.90;;;1.23;;
71572;SDS011;59408;51.032;9.410;2022-07-18T01:59:32;4.85;;;1.40;;
71572;SDS011;59408;51.032;9.410;2022-07-18T02:02:00;5.68;;;1.73;;
71572;SDS011;59408;51.032;9.410;2022-07-18T02:04:29;4.65;;;1.50;;
71572;SDS011;59408;51.032;9.410;2022-07-18T02:06:55;5.22;;;1.60;;
71572;SDS011;59408;51.032;9.410;2022-07-18T02:09:22;6.30;;;1.20;;
71572;SDS011;59408;51.032;9.410;2022-07-18T02:11:48;4.43;;;1.40;;
71572;SDS011;59408;51.032;9.410;2022-07-18T02:14:16;4.50;;;1.30;;
71572;SDS011;59408;51.032;9.410;2022-07-18T02:16:43;4.75;;;1.50;;
71572;SDS011;59408;51.032;9.410;2022-07-18T02:19:09;5.25;;;1.55;;
71572;SDS011;59408;51.032;9.410;2022-07-18T02:21:36;4.70;;;1.40;;
71572;SDS011;59408;51.032;9.410;2022-07-18T02:24:03;6.22;;;2.00;;
71572;SDS011;59408;51.032;9.410;2022-07-18T02:26:30;4.03;;;1.40;;
71572;SDS011;59408;51.032;9.410;2022-07-18T02:28:57;5.80;;;1.40;;
71572;SDS011;59408;51.032;9.410;2022-07-18T02:31:25;4.97;;;1.45;;
71572;SDS011;59408;51.032;9.410;2022-07-18T02:33:52;5.87;;;1.40;;
71572;SDS011;59408;51.032;9.410;2022-07-18T02:36:19;4.10;;;1.20;;
71572;SDS011;59408;51.032;9.410;2022-07-18T02:38:45;4.10;;;1.38;;
71572;SDS011;59408;51.032;9.410;2022-07-18T02:41:12;5.40;;;1.48;;
71572;SDS011;59408;51.032;9.410;2022-07-18T02:43:39;3.90;;;1.77;;
71572;SDS011;59408;51.032;9.410;2022-07-18T02:46:05;5.80;;;1.33;;
71572;SDS011;59408;51.032;9.410;2022-07-18T02:48:33;4.20;;;1.35;;
71572;SDS011;59408;51.032;9.410;2022-07-18T02:51:00;4.85;;;1.27;;
71572;SDS011;59408;51.032;9.410;2022-07-18T02:53:26;4.28;;;1.40;;
71572;SDS011;59408;51.032;9.410;2022-07-18T02:55:53;4.10;;;1.30;;
71572;SDS011;59408;51.032;9.410;2022-07-18T02:58:19;4.93;;;1.30;;
71572;SDS011;59408;51.032;9.410;2022-07-18T03:00:46;5.53;;;1.60;;
71572;SDS011;59408;51.032;9.410;2022-07-18T03:03:13;4.53;;;1.63;;
71572;SDS011;59408;51.032;9.410;2022-07-18T03:05:41;4.00;;;1.20;;
71572;SDS011;59408;51.032;9.410;2022-07-18T03:08:07;4.32;;;1.48;;
71572;SDS011;59408;51.032;9.410;2022-07-18T03:10:34;4.55;;;1.50;;
71572;SDS011;59408;51.032;9.410;2022-07-18T03:13:00;4.15;;;1.42;;
71572;SDS011;59408;51.032;9.410;2022-07-18T03:15:27;4.57;;;1.35;;
71572;SDS011;59408;51.032;9.410;2022-07-18T03:17:53;4.35;;;1.35;;
71572;SDS011;59408;51.032;9.410;2022-07-18T03:20:20;6.75;;;2.08;;
71572;SDS011;59408;51.032;9.410;2022-07-18T03:22:48;4.77;;;1.40;;
71572;SDS011;59408;51.032;9.410;2022-07-18T03:25:15;4.20;;;1.27;;
71572;SDS011;59408;51.032;9.410;2022-07-18T03:27:41;5.43;;;1.48;;
71572;SDS011;59408;51.032;9.410;2022-07-18T03:30:09;7.10;;;1.73;;
71572;SDS011;59408;51.032;9.410;2022-07-18T03:32:36;4.43;;;1.40;;
71572;SDS011;59408;51.032;9.410;2022-07-18T03:35:03;4.63;;;1.60;;
71572;SDS011;59408;51.032;9.410;2022-07-18T03:37:30;4.93;;;1.50;;
71572;SDS011;59408;51.032;9.410;2022-07-18T03:39:58;5.00;;;1.50;;
71572;SDS011;59408;51.032;9.410;2022-07-18T03:42:25;6.93;;;1.70;;
71572;SDS011;59408;51.032;9.410;2022-07-18T03:44:51;5.45;;;1.60;;
71572;SDS011;59408;51.032;9.410;2022-07-18T03:47:18;5.07;;;1.53;;
71572;SDS011;59408;51.032;9.410;2022-07-18T03:49:44;7.43;;;1.70;;
71572;SDS011;59408;51.032;9.410;2022-07-18T03:52:11;6.35;;;1.80;;
71572;SDS011;59408;51.032;9.410;2022-07-18T03:54:37;4.75;;;1.50;;
71572;SDS011;59408;51.032;9.410;2022-07-18T03:57:05;6.25;;;1.52;;
71572;SDS011;59408;51.032;9.410;2022-07-18T03:59:32;5.38;;;1.80;;
71572;SDS011;59408;51.032;9.410;2022-07-18T04:01:59;4.45;;;1.33;;
71572;SDS011;59408;51.032;9.410;2022-07-18T04:04:25;5.47;;;1.80;;
71572;SDS011;59408;51.032;9.410;2022-07-18T04:06:52;5.18;;;1.65;;
71572;SDS011;59408;51.032;9.410;2022-07-18T04:09:18;4.72;;;1.58;;
71572;SDS011;59408;51.032;9.410;2022-07-18T04:11:45;6.40;;;1.50;;
71572;SDS011;59408;51.032;9.410;2022-07-18T04:14:13;4.93;;;1.70;;
71572;SDS011;59408;51.032;9.410;2022-07-18T04:16:39;7.22;;;1.88;;
71572;SDS011;59408;51.032;9.410;2022-07-18T04:19:06;7.82;;;1.60;;
71572;SDS011;59408;51.032;9.410;2022-07-18T04:21:33;4.70;;;1.70;;
71572;SDS011;59408;51.032;9.410;2022-07-18T04:23:59;5.78;;;1.70;;
71572;SDS011;59408;51.032;9.410;2022-07-18T04:26:26;5.20;;;1.60;;
71572;SDS011;59408;51.032;9.410;2022-07-18T04:28:52;5.38;;;1.60;;
71572;SDS011;59408;51.032;9.410;2022-07-18T04:31:20;5.18;;;1.77;;
71572;SDS011;59408;51.032;9.410;2022-07-18T04:33:48;4.90;;;1.65;;
71572;SDS011;59408;51.032;9.410;2022-07-18T04:36:15;4.40;;;1.60;;
71572;SDS011;59408;51.032;9.410;2022-07-18T04:38:41;5.33;;;1.77;;
71572;SDS011;59408;51.032;9.410;2022-07-18T04:41:08;5.35;;;1.27;;
71572;SDS011;59408;51.032;9.410;2022-07-18T04:43:34;6.43;;;1.40;;
71572;SDS011;59408;51.032;9.410;2022-07-18T04:46:01;4.75;;;1.30;;
71572;SDS011;59408;51.032;9.410;2022-07-18T04:48:30;5.30;;;1.40;;
71572;SDS011;59408;51.032;9.410;2022-07-18T04:50:56;5.53;;;1.45;;
71572;SDS011;59408;51.032;9.410;2022-07-18T04:53:23;6.05;;;1.80;;
71572;SDS011;59408;51.032;9.410;2022-07-18T04:55:49;4.88;;;1.80;;
71572;SDS011;59408;51.032;9.410;2022-07-18T04:58:16;5.35;;;1.40;;
71572;SDS011;59408;51.032;9.410;2022-07-18T05:00:42;5.67;;;1.50;;
71572;SDS011;59408;51.032;9.410;2022-07-18T05:03:09;5.73;;;1.20;;
71572;SDS011;59408;51.032;9.410;2022-07-18T05:05:37;4.45;;;1.60;;
71572;SDS011;59408;51.032;9.410;2022-07-18T05:08:04;5.47;;;1.50;;
71572;SDS011;59408;51.032;9.410;2022-07-18T05:10:31;4.35;;;1.58;;
71572;SDS011;59408;51.032;9.410;2022-07-18T05:12:58;5.30;;;1.27;;
71572;SDS011;59408;51.032;9.410;2022-07-18T05:15:25;4.22;;;1.30;;
71572;SDS011;59408;51.032;9.410;2022-07-18T05:17:52;4.85;;;1.40;;
71572;SDS011;59408;51.032;9.410;2022-07-18T05:20:19;5.03;;;1.50;;
71572;SDS011;59408;51.032;9.410;2022-07-18T05:22:49;5.80;;;1.50;;
71572;SDS011;59408;51.032;9.410;2022-07-18T05:25:16;5.10;;;1.30;;
71572;SDS011;59408;51.032;9.410;2022-07-18T05:27:44;4.80;;;1.40;;
71572;SDS011;59408;51.032;9.410;2022-07-18T05:30:11;5.70;;;1.70;;
71572;SDS011;59408;51.032;9.410;2022-07-18T05:32:40;4.78;;;1.30;;
71572;SDS011;59408;51.032;9.410;2022-07-18T05:35:08;5.22;;;1.60;;
71572;SDS011;59408;51.032;9.410;2022-07-18T05:37:36;4.50;;;1.50;;
71572;SDS011;59408;51.032;9.410;2022-07-18T05:40:06;4.90;;;1.60;;
71572;SDS011;59408;51.032;9.410;2022-07-18T05:42:35;5.28;;;1.80;;
71572;SDS011;59408;51.032;9.410;2022-07-18T05:45:19;5.75;;;1.75;;
71572;SDS011;59408;51.032;9.410;2022-07-18T05:47:46;6.57;;;1.83;;
71572;SDS011;59408;51.032;9.410;2022-07-18T05:50:12;5.17;;;1.87;;
71572;SDS011;59408;51.032;9.410;2022-07-18T05:52:39;6.00;;;1.70;;
71572;SDS011;59408;51.032;9.410;2022-07-18T05:55:07;8.35;;;1.80;;
71572;SDS011;59408;51.032;9.410;2022-07-18T05:57:35;6.35;;;1.88;;
71572;SDS011;59408;51.032;9.410;2022-07-18T06:00:02;5.57;;;1.63;;
71572;SDS011;59408;51.032;9.410;2022-07-18T06:02:29;5.75;;;1.55;;
71572;SDS011;59408;51.032;9.410;2022-07-18T06:04:56;5.43;;;1.50;;
71572;SDS011;59408;51.032;9.410;2022-07-18T06:07:43;5.78;;;1.38;;
71572;SDS011;59408;51.032;9.410;2022-07-18T06:10:11;4.13;;;1.50;;
71572;SDS011;59408;51.032;9.410;2022-07-18T06:12:38;5.38;;;1.70;;
71572;SDS011;59408;51.032;9.410;2022-07-18T06:15:05;6.33;;;2.17;;
71572;SDS011;59408;51.032;9.410;2022-07-18T06:17:33;6.83;;;1.80;;
71572;SDS011;59408;51.032;9.410;2022-07-18T06:20:00;5.85;;;1.52;;
71572;SDS011;59408;51.032;9.410;2022-07-18T06:22:27;4.50;;;1.50;;
71572;SDS011;59408;51.032;9.410;2022-07-18T06:24:54;5.30;;;1.63;;
71572;SDS011;59408;51.032;9.410;2022-07-18T06:27:21;5.68;;;1.50;;
71572;SDS011;59408;51.032;9.410;2022-07-18T06:29:48;7.10;;;1.52;;
71572;SDS011;59408;51.032;9.410;2022-07-18T06:32:15;5.03;;;1.45;;
71572;SDS011;59408;51.032;9.410;2022-07-18T06:34:41;6.32;;;1.35;;
71572;SDS011;59408;51.032;9.410;2022-07-18T06:37:08;7.05;;;1.67;;
71572;SDS011;59408;51.032;9.410;2022-07-18T06:39:34;4.60;;;1.30;;
71572;SDS011;59408;51.032;9.410;2022-07-18T06:42:01;5.57;;;1.43;;
71572;SDS011;59408;51.032;9.410;2022-07-18T06:44:29;6.68;;;1.50;;
71572;SDS011;59408;51.032;9.410;2022-07-18T06:46:56;5.85;;;1.60;;
71572;SDS011;59408;51.032;9.410;2022-07-18T06:49:22;4.55;;;1.52;;
71572;SDS011;59408;51.032;9.410;2022-07-18T06:51:49;4.97;;;1.45;;
71572;SDS011;59408;51.032;9.410;2022-07-18T06:54:16;5.03;;;1.20;;
71572;SDS011;59408;51.032;9.410;2022-07-18T06:56:42;6.30;;;1.58;;
71572;SDS011;59408;51.032;9.410;2022-07-18T06:59:09;5.63;;;1.50;;
71572;SDS011;59408;51.032;9.410;2022-07-18T07:01:37;6.10;;;1.40;;
71572;SDS011;59408;51.032;9.410;2022-07-18T07:04:04;5.87;;;2.10;;
71572;SDS011;59408;51.032;9.410;2022-07-18T07:06:30;5.53;;;1.57;;
71572;SDS011;59408;51.032;9.410;2022-07-18T07:08:57;7.70;;;1.58;;
71572;SDS011;59408;51.032;9.410;2022-07-18T07:11:23;7.93;;;1.77;;
71572;SDS011;59408;51.032;9.410;2022-07-18T07:13:50;6.03;;;1.58;;
71572;SDS011;59408;51.032;9.410;2022-07-18T07:16:16;5.85;;;1.85;;
71572;SDS011;59408;51.032;9.410;2022-07-18T07:18:45;5.93;;;1.48;;
71572;SDS011;59408;51.032;9.410;2022-07-18T07:21:11;6.03;;;1.70;;
71572;SDS011;59408;51.032;9.410;2022-07-18T07:23:45;6.22;;;1.83;;
71572;SDS011;59408;51.032;9.410;2022-07-18T07:26:11;5.38;;;1.70;;
71572;SDS011;59408;51.032;9.410;2022-07-18T07:28:38;5.00;;;1.50;;
71572;SDS011;59408;51.032;9.410;2022-07-18T07:31:05;5.83;;;1.50;;
71572;SDS011;59408;51.032;9.410;2022-07-18T07:33:31;5.55;;;1.77;;
71572;SDS011;59408;51.032;9.410;2022-07-18T07:35:59;5.97;;;1.75;;
71572;SDS011;59408;51.032;9.410;2022-07-18T07:38:26;6.25;;;1.60;;
71572;SDS011;59408;51.032;9.410;2022-07-18T07:40:53;4.85;;;1.60;;
71572;SDS011;59408;51.032;9.410;2022-07-18T07:43:20;5.80;;;1.50;;
71572;SDS011;59408;51.032;9.410;2022-07-18T07:45:47;6.82;;;1.50;;
71572;SDS011;59408;51.032;9.410;2022-07-18T07:48:15;5.38;;;1.92;;
71572;SDS011;59408;51.032;9.410;2022-07-18T07:50:43;5.88;;;1.50;;
71572;SDS011;59408;51.032;9.410;2022-07-18T07:53:11;5.50;;;1.37;;
71572;SDS011;59408;51.032;9.410;2022-07-18T07:55:37;5.83;;;1.40;;
71572;SDS011;59408;51.032;9.410;2022-07-18T07:58:05;4.93;;;1.48;;
71572;SDS011;59408;51.032;9.410;2022-07-18T08:00:31;7.07;;;1.50;;
71572;SDS011;59408;51.032;9.410;2022-07-18T08:02:59;6.32;;;1.70;;
71572;SDS011;59408;51.032;9.410;2022-07-18T08:05:28;6.45;;;1.55;;
71572;SDS011;59408;51.032;9.410;2022-07-18T08:07:56;5.05;;;1.63;;
71572;SDS011;59408;51.032;9.410;2022-07-18T08:10:24;4.72;;;1.90;;
71572;SDS011;59408;51.032;9.410;2022-07-18T08:12:52;4.57;;;1.67;;
71572;SDS011;59408;51.032;9.410;2022-07-18T08:15:18;4.10;;;1.50;;
71572;SDS011;59408;51.032;9.410;2022-07-18T08:17:45;6.63;;;1.80;;
71572;SDS011;59408;51.032;9.410;2022-07-18T08:20:13;4.90;;;1.75;;
71572;SDS011;59408;51.032;9.410;2022-07-18T08:22:54;6.22;;;1.35;;
71572;SDS011;59408;51.032;9.410;2022-07-18T08:25:22;4.20;;;1.50;;
71572;SDS011;59408;51.032;9.410;2022-07-18T08:27:51;6.28;;;1.67;;
71572;SDS011;59408;51.032;9.410;2022-07-18T08:30:18;3.90;;;1.40;;
71572;SDS011;59408;51.032;9.410;2022-07-18T08:32:46;5.35;;;1.88;;
71572;SDS011;59408;51.032;9.410;2022-07-18T08:35:13;6.20;;;1.60;;
71572;SDS011;59408;51.032;9.410;2022-07-18T08:37:39;5.37;;;1.30;;
71572;SDS011;59408;51.032;9.410;2022-07-18T08:40:06;4.38;;;1.60;;
71572;SDS011;59408;51.032;9.410;2022-07-18T08:42:35;5.45;;;1.50;;
71572;SDS011;59408;51.032;9.410;2022-07-18T08:45:21;4.72;;;1.30;;
71572;SDS011;59408;51.032;9.410;2022-07-18T08:47:49;6.13;;;1.60;;
71572;SDS011;59408;51.032;9.410;2022-07-18T08:50:16;6.55;;;1.67;;
71572;SDS011;59408;51.032;9.410;2022-07-18T08:52:43;5.03;;;1.47;;
71572;SDS011;59408;51.032;9.410;2022-07-18T08:55:20;5.30;;;1.63;;
71572;SDS011;59408;51.032;9.410;2022-07-18T08:57:53;5.38;;;1.40;;
71572;SDS011;59408;51.032;9.410;2022-07-18T09:00:20;7.13;;;1.60;;
71572;SDS011;59408;51.032;9.410;2022-07-18T09:02:55;6.28;;;1.65;;
71572;SDS011;59408;51.032;9.410;2022-07-18T09:05:22;6.13;;;1.92;;
71572;SDS011;59408;51.032;9.410;2022-07-18T09:08:12;6.03;;;1.85;;
71572;SDS011;59408;51.032;9.410;2022-07-18T09:10:40;4.20;;;1.60;;
71572;SDS011;59408;51.032;9.410;2022-07-18T09:13:15;3.67;;;1.30;;
71572;SDS011;59408;51.032;9.410;2022-07-18T09:15:55;4.18;;;1.40;;
71572;SDS011;59408;51.032;9.410;2022-07-18T09:18:26;4.30;;;1.52;;
71572;SDS011;59408;51.032;9.410;2022-07-18T09:21:03;6.00;;;1.80;;
71572;SDS011;59408;51.032;9.410;2022-07-18T09:23:32;5.20;;;1.60;;
71572;SDS011;59408;51.032;9.410;2022-07-18T09:26:00;4.73;;;1.50;;
71572;SDS011;59408;51.032;9.410;2022-07-18T09:28:29;6.10;;;1.60;;
71572;SDS011;59408;51.032;9.410;2022-07-18T09:31:30;4.95;;;1.77;;
71572;SDS011;59408;51.032;9.410;2022-07-18T09:33:58;5.85;;;1.30;;
71572;SDS011;59408;51.032;9.410;2022-07-18T09:36:27;5.43;;;1.60;;
71572;SDS011;59408;51.032;9.410;2022-07-18T09:38:54;4.90;;;1.50;;
71572;SDS011;59408;51.032;9.410;2022-07-18T09:41:22;6.00;;;1.53;;
71572;SDS011;59408;51.032;9.410;2022-07-18T09:43:51;5.25;;;1.60;;
71572;SDS011;59408;51.032;9.410;2022-07-18T09:46:18;4.82;;;1.55;;
71572;SDS011;59408;51.032;9.410;2022-07-18T09:48:45;4.78;;;1.50;;
71572;SDS011;59408;51.032;9.410;2022-07-18T09:51:12;4.90;;;1.55;;
71572;SDS011;59408;51.032;9.410;2022-07-18T09:53:39;5.50;;;1.47;;
71572;SDS011;59408;51.032;9.410;2022-07-18T09:56:07;4.17;;;1.50;;
71572;SDS011;59408;51.032;9.410;2022-07-18T09:58:35;4.63;;;1.73;;
71572;SDS011;59408;51.032;9.410;2022-07-18T10:01:05;5.93;;;1.90;;
71572;SDS011;59408;51.032;9.410;2022-07-18T10:03:32;4.57;;;1.38;;
71572;SDS011;59408;51.032;9.410;2022-07-18T10:06:00;5.50;;;1.73;;
71572;SDS011;59408;51.032;9.410;2022-07-18T10:08:28;4.93;;;2.13;;
71572;SDS011;59408;51.032;9.410;2022-07-18T10:10:56;5.82;;;2.00;;
71572;SDS011;59408;51.032;9.410;2022-07-18T10:13:25;4.80;;;1.75;;
71572;SDS011;59408;51.032;9.410;2022-07-18T10:15:53;5.75;;;2.10;;
71572;SDS011;59408;51.032;9.410;2022-07-18T10:18:22;4.93;;;1.80;;
71572;SDS011;59408;51.032;9.410;2022-07-18T10:20:52;5.67;;;1.67;;
71572;SDS011;59408;51.032;9.410;2022-07-18T10:23:21;4.95;;;1.95;;
71572;SDS011;59408;51.032;9.410;2022-07-18T10:26:10;4.70;;;1.77;;
71572;SDS011;59408;51.032;9.410;2022-07-18T10:32:00;6.13;;;1.80;;
71572;SDS011;59408;51.032;9.410;2022-07-18T10:34:31;4.30;;;1.50;;
71572;SDS011;59408;51.032;9.410;2022-07-18T10:37:09;4.82;;;2.10;;
71572;SDS011;59408;51.032;9.410;2022-07-18T10:39:37;5.60;;;1.73;;
71572;SDS011;59408;51.032;9.410;2022-07-18T10:42:15;5.32;;;1.80;;
71572;SDS011;59408;51.032;9.410;2022-07-18T10:44:42;6.78;;;1.88;;
71572;SDS011;59408;51.032;9.410;2022-07-18T10:47:09;4.33;;;1.60;;
71572;SDS011;59408;51.032;9.410;2022-07-18T10:55:32;4.97;;;1.70;;
71572;SDS011;59408;51.032;9.410;2022-07-18T10:58:15;4.63;;;1.67;;
71572;SDS011;59408;51.032;9.410;2022-07-18T11:00:49;4.57;;;1.97;;
71572;SDS011;59408;51.032;9.410;2022-07-18T11:03:18;5.63;;;1.80;;
71572;SDS011;59408;51.032;9.410;2022-07-18T11:05:54;6.18;;;1.95;;
71572;SDS011;59408;51.032;9.410;2022-07-18T11:08:22;4.40;;;1.60;;
71572;SDS011;59408;51.032;9.410;2022-07-18T11:13:31;4.50;;;1.90;;
71572;SDS011;59408;51.032;9.410;2022-07-18T11:16:00;6.20;;;2.08;;
71572;SDS011;59408;51.032;9.410;2022-07-18T11:18:28;4.82;;;1.92;;
71572;SDS011;59408;51.032;9.410;2022-07-18T11:20:58;5.00;;;1.80;;
71572;SDS011;59408;51.032;9.410;2022-07-18T11:23:25;5.55;;;2.03;;
71572;SDS011;59408;51.032;9.410;2022-07-18T11:26:02;5.07;;;2.00;;
71572;SDS011;59408;51.032;9.410;2022-07-18T11:28:28;5.72;;;1.85;;
71572;SDS011;59408;51.032;9.410;2022-07-18T11:30:59;5.30;;;1.98;;
71572;SDS011;59408;51.032;9.410;2022-07-18T11:33:28;6.05;;;1.80;;
71572;SDS011;59408;51.032;9.410;2022-07-18T11:36:05;6.63;;;2.38;;
71572;SDS011;59408;51.032;9.410;2022-07-18T11:38:33;6.33;;;1.70;;
71572;SDS011;59408;51.032;9.410;2022-07-18T11:41:01;5.47;;;2.00;;
71572;SDS011;59408;51.032;9.410;2022-07-18T11:43:29;5.18;;;2.03;;
71572;SDS011;59408;51.032;9.410;2022-07-18T11:45:59;5.03;;;2.28;;
71572;SDS011;59408;51.032;9.410;2022-07-18T11:48:27;5.18;;;2.47;;
71572;SDS011;59408;51.032;9.410;2022-07-18T11:50:54;6.87;;;1.93;;
71572;SDS011;59408;51.032;9.410;2022-07-18T11:53:23;5.13;;;1.90;;
71572;SDS011;59408;51.032;9.410;2022-07-18T11:55:49;4.65;;;1.90;;
71572;SDS011;59408;51.032;9.410;2022-07-18T11:58:17;4.70;;;1.80;;
71572;SDS011;59408;51.032;9.410;2022-07-18T12:00:44;5.82;;;2.10;;
71572;SDS011;59408;51.032;9.410;2022-07-18T12:03:13;5.53;;;1.80;;
71572;SDS011;59408;51.032;9.410;2022-07-18T12:05:41;4.50;;;1.90;;
71572;SDS011;59408;51.032;9.410;2022-07-18T12:08:30;5.50;;;1.98;;
71572;SDS011;59408;51.032;9.410;2022-07-18T12:11:07;6.15;;;2.15;;
71572;SDS011;59408;51.032;9.410;2022-07-18T12:13:39;7.00;;;2.20;;
71572;SDS011;59408;51.032;9.410;2022-07-18T12:16:23;5.17;;;2.20;;
71572;SDS011;59408;51.032;9.410;2022-07-18T12:18:55;6.15;;;2.75;;
71572;SDS011;59408;51.032;9.410;2022-07-18T12:21:24;7.10;;;2.15;;
71572;SDS011;59408;51.032;9.410;2022-07-18T12:24:17;6.18;;;2.20;;
71572;SDS011;59408;51.032;9.410;2022-07-18T12:27:12;5.47;;;2.50;;
71572;SDS011;59408;51.032;9.410;2022-07-18T12:29:57;5.53;;;2.40;;
71572;SDS011;59408;51.032;9.410;2022-07-18T12:32:30;5.57;;;2.40;;
71572;SDS011;59408;51.032;9.410;2022-07-18T12:35:03;5.20;;;1.95;;
71572;SDS011;59408;51.032;9.410;2022-07-18T12:37:31;5.82;;;2.10;;
71572;SDS011;59408;51.032;9.410;2022-07-18T12:40:00;4.75;;;2.20;;
71572;SDS011;59408;51.032;9.410;2022-07-18T12:42:48;5.57;;;2.47;;
71572;SDS011;59408;51.032;9.410;2022-07-18T12:45:15;5.20;;;2.22;;
71572;SDS011;59408;51.032;9.410;2022-07-18T12:47:41;4.60;;;2.00;;
71572;SDS011;59408;51.032;9.410;2022-07-18T12:50:08;5.72;;;2.22;;
71572;SDS011;59408;51.032;9.410;2022-07-18T12:52:40;4.90;;;2.30;;
71572;SDS011;59408;51.032;9.410;2022-07-18T12:55:08;5.70;;;2.10;;
71572;SDS011;59408;51.032;9.410;2022-07-18T12:57:35;5.03;;;2.38;;
71572;SDS011;59408;51.032;9.410;2022-07-18T13:00:02;6.40;;;2.42;;
71572;SDS011;59408;51.032;9.410;2022-07-18T13:02:29;5.70;;;2.50;;
71572;SDS011;59408;51.032;9.410;2022-07-18T13:04:56;4.50;;;2.47;;
71572;SDS011;59408;51.032;9.410;2022-07-18T13:07:23;6.87;;;2.50;;
71572;SDS011;59408;51.032;9.410;2022-07-18T13:09:49;5.93;;;2.33;;
71572;SDS011;59408;51.032;9.410;2022-07-18T13:12:17;5.45;;;2.05;;
71572;SDS011;59408;51.032;9.410;2022-07-18T13:14:44;6.20;;;2.53;;
71572;SDS011;59408;51.032;9.410;2022-07-18T13:17:10;4.97;;;2.40;;
71572;SDS011;59408;51.032;9.410;2022-07-18T13:19:37;6.53;;;2.47;;
71572;SDS011;59408;51.032;9.410;2022-07-18T13:22:04;5.43;;;2.63;;
71572;SDS011;59408;51.032;9.410;2022-07-18T13:24:30;7.00;;;2.42;;
71572;SDS011;59408;51.032;9.410;2022-07-18T13:27:01;6.68;;;2.40;;
71572;SDS011;59408;51.032;9.410;2022-07-18T13:29:30;5.60;;;2.38;;
71572;SDS011;59408;51.032;9.410;2022-07-18T13:31:56;4.93;;;2.40;;
71572;SDS011;59408;51.032;9.410;2022-07-18T13:34:23;6.13;;;2.53;;
71572;SDS011;59408;51.032;9.410;2022-07-18T13:36:51;6.38;;;2.28;;
71572;SDS011;59408;51.032;9.410;2022-07-18T13:39:18;5.60;;;2.20;;
71572;SDS011;59408;51.032;9.410;2022-07-18T13:41:45;5.70;;;2.42;;
71572;SDS011;59408;51.032;9.410;2022-07-18T13:44:12;6.27;;;2.30;;
71572;SDS011;59408;51.032;9.410;2022-07-18T13:46:40;5.07;;;2.47;;
71572;SDS011;59408;51.032;9.410;2022-07-18T13:49:07;4.55;;;2.35;;
71572;SDS011;59408;51.032;9.410;2022-07-18T13:51:35;5.53;;;2.58;;
71572;SDS011;59408;51.032;9.410;2022-07-18T13:54:02;4.72;;;2.40;;
71572;SDS011;59408;51.032;9.410;2022-07-18T13:56:29;5.43;;;2.00;;
71572;SDS011;59408;51.032;9.410;2022-07-18T13:58:56;6.13;;;2.20;;
71572;SDS011;59408;51.032;9.410;2022-07-18T14:01:22;6.88;;;2.78;;
71572;SDS011;59408;51.032;9.410;2022-07-18T14:03:51;6.88;;;2.30;;
71572;SDS011;59408;51.032;9.410;2022-07-18T14:06:17;5.75;;;2.13;;
71572;SDS011;59408;51.032;9.410;2022-07-18T14:08:44;6.30;;;2.77;;
71572;SDS011;59408;51.032;9.410;2022-07-18T14:11:10;4.85;;;2.40;;
71572;SDS011;59408;51.032;9.410;2022-07-18T14:13:37;6.43;;;2.83;;
71572;SDS011;59408;51.032;9.410;2022-07-18T14:16:04;6.22;;;2.53;;
71572;SDS011;59408;51.032;9.410;2022-07-18T14:18:31;6.25;;;2.20;;
71572;SDS011;59408;51.032;9.410;2022-07-18T14:20:59;7.03;;;2.80;;
71572;SDS011;59408;51.032;9.410;2022-07-18T14:23:25;5.57;;;2.70;;
71572;SDS011;59408;51.032;9.410;2022-07-18T14:25:52;5.82;;;2.72;;
71572;SDS011;59408;51.032;9.410;2022-07-18T14:28:18;5.65;;;2.53;;
71572;SDS011;59408;51.032;9.410;2022-07-18T14:30:45;6.35;;;2.58;;
71572;SDS011;59408;51.032;9.410;2022-07-18T14:33:12;5.47;;;2.67;;
71572;SDS011;59408;51.032;9.410;2022-07-18T14:35:38;5.18;;;2.40;;
71572;SDS011;59408;51.032;9.410;2022-07-18T14:38:06;6.40;;;2.42;;
71572;SDS011;59408;51.032;9.410;2022-07-18T14:40:33;4.40;;;2.30;;
71572;SDS011;59408;51.032;9.410;2022-07-18T14:43:00;5.78;;;2.67;;
71572;SDS011;59408;51.032;9.410;2022-07-18T14:45:27;5.63;;;2.53;;
71572;SDS011;59408;51.032;9.410;2022-07-18T14:47:58;5.72;;;2.60;;
71572;SDS011;59408;51.032;9.410;2022-07-18T14:50:25;7.78;;;3.05;;
71572;SDS011;59408;51.032;9.410;2022-07-18T14:52:52;8.18;;;2.85;;
71572;SDS011;59408;51.032;9.410;2022-07-18T14:55:20;5.60;;;3.00;;
71572;SDS011;59408;51.032;9.410;2022-07-18T14:57:47;7.13;;;2.50;;
71572;SDS011;59408;51.032;9.410;2022-07-18T15:00:21;7.57;;;3.00;;
71572;SDS011;59408;51.032;9.410;2022-07-18T15:02:48;6.00;;;3.20;;
71572;SDS011;59408;51.032;9.410;2022-07-18T15:05:15;6.97;;;3.15;;
71572;SDS011;59408;51.032;9.410;2022-07-18T15:07:41;6.90;;;2.70;;